Time;durP1;ratioP1;P1;durP2;ratioP2;P2;SDS_P1;SDS_P2;PMS_P1;PMS_P2;Temp;Humidity;BMP_temperature;BMP_pressure;BME280_temperature;BME280_humidity;BME280_pressure;Samples;Min_cycle;Max_cycle;Signal;HPM_P1;HPM_P2
2022/07/12 00:00:17;;;;;;;2.47;2.28;;;19.20;97.70;;;;;;4974765;28;92430;-69
2022/07/12 00:02:44;;;;;;;2.30;2.10;;;19.20;97.60;;;;;;4976129;28;92892;-69
2022/07/12 00:05:11;;;;;;;2.97;2.40;;;19.20;97.70;;;;;;4990669;28;95697;-69
2022/07/12 00:07:38;;;;;;;2.20;2.05;;;19.20;97.70;;;;;;4991324;28;93077;-69
2022/07/12 00:10:05;;;;;;;3.30;3.00;;;19.20;97.70;;;;;;4974240;28;92518;-69
2022/07/12 00:12:32;;;;;;;2.92;2.30;;;19.20;97.70;;;;;;4991166;28;92744;-69
2022/07/12 00:14:59;;;;;;;3.95;3.75;;;19.20;97.70;;;;;;4989477;28;95671;-69
2022/07/12 00:17:26;;;;;;;2.70;2.50;;;19.20;97.80;;;;;;4990878;28;95404;-69
2022/07/12 00:19:53;;;;;;;3.17;2.97;;;19.10;97.80;;;;;;4975494;28;92443;-69
2022/07/12 00:22:22;;;;;;;2.80;2.60;;;19.10;97.80;;;;;;4975230;28;93021;-69
2022/07/12 00:24:49;;;;;;;3.53;3.22;;;19.10;97.80;;;;;;4975190;28;93125;-69
2022/07/12 00:27:16;;;;;;;3.03;2.83;;;19.00;97.80;;;;;;4974171;28;95486;-69
2022/07/12 00:29:43;;;;;;;3.45;3.25;;;19.00;97.90;;;;;;4974281;28;92629;-69
2022/07/12 00:32:10;;;;;;;3.97;2.60;;;18.90;98.00;;;;;;4975760;28;91700;-69
2022/07/12 00:34:37;;;;;;;2.78;2.58;;;18.90;98.10;;;;;;4973866;28;94557;-69
2022/07/12 00:37:04;;;;;;;2.80;2.60;;;19.00;98.10;;;;;;4975320;28;92923;-69
2022/07/12 00:39:31;;;;;;;2.70;2.35;;;19.00;98.10;;;;;;4956897;28;94875;-69
2022/07/12 00:41:58;;;;;;;3.85;3.63;;;19.00;98.10;;;;;;4975472;28;92476;-69
2022/07/12 00:44:26;;;;;;;3.03;2.83;;;19.00;98.10;;;;;;4975208;28;93164;-69
2022/07/12 00:46:54;;;;;;;2.72;2.53;;;18.90;98.10;;;;;;4973756;28;95536;-69
2022/07/12 00:49:23;;;;;;;3.50;3.30;;;18.90;98.10;;;;;;4957923;28;93139;-69
2022/07/12 00:51:50;;;;;;;4.20;4.00;;;18.90;98.10;;;;;;4974035;28;92476;-69
2022/07/12 00:54:17;;;;;;;3.75;3.35;;;18.90;98.20;;;;;;4973639;28;93249;-69
2022/07/12 00:56:44;;;;;;;3.58;3.30;;;18.80;98.20;;;;;;4974211;28;95587;-69
2022/07/12 00:59:11;;;;;;;3.10;2.90;;;18.70;98.40;;;;;;4974049;28;92655;-69
2022/07/12 01:01:39;;;;;;;4.65;4.28;;;18.70;98.40;;;;;;4975370;28;92550;-69
2022/07/12 01:04:06;;;;;;;3.97;3.63;;;18.70;98.40;;;;;;4973342;28;95413;-69
2022/07/12 01:06:34;;;;;;;2.67;2.53;;;18.70;98.40;;;;;;4974874;28;95438;-69
2022/07/12 01:09:01;;;;;;;3.95;3.75;;;18.70;98.50;;;;;;4973892;28;92461;-69
2022/07/12 01:11:28;;;;;;;2.70;2.50;;;18.70;98.50;;;;;;4973781;28;92531;-69
2022/07/12 01:13:57;;;;;;;2.67;2.47;;;18.70;98.50;;;;;;4990130;28;93345;-69
2022/07/12 01:16:25;;;;;;;3.83;3.60;;;18.70;98.50;;;;;;4974862;28;92995;-69
2022/07/12 01:18:53;;;;;;;2.70;2.53;;;18.70;98.50;;;;;;4974981;28;92458;-69
2022/07/12 01:21:23;;;;;;;2.70;2.50;;;18.60;98.60;;;;;;4975263;28;91742;-69
2022/07/12 01:23:51;;;;;;;4.32;4.05;;;18.50;98.70;;;;;;4975090;28;93311;-69
2022/07/12 01:26:18;;;;;;;2.85;2.65;;;18.40;98.80;;;;;;4989837;28;93016;-69
2022/07/12 01:28:46;;;;;;;2.70;2.50;;;18.30;98.90;;;;;;4973121;28;108142;-69
2022/07/12 01:31:13;;;;;;;3.88;3.58;;;18.20;99.00;;;;;;4974830;28;92450;-69
2022/07/12 01:33:40;;;;;;;3.33;3.13;;;18.20;99.10;;;;;;4977972;28;93262;-69
2022/07/12 01:36:08;;;;;;;2.80;2.50;;;18.10;99.30;;;;;;4977825;28;93178;-69
2022/07/12 01:38:35;;;;;;;4.15;3.85;;;18.00;99.40;;;;;;4978530;28;92426;-69
2022/07/12 01:41:02;;;;;;;3.17;2.97;;;17.90;99.60;;;;;;4976803;28;92424;-69
2022/07/12 01:43:29;;;;;;;3.25;3.05;;;17.90;99.80;;;;;;4976373;28;94393;-69
2022/07/12 01:45:56;;;;;;;2.88;2.40;;;17.80;99.90;;;;;;4993384;28;93625;-69
2022/07/12 01:48:23;;;;;;;4.15;3.90;;;17.70;99.90;;;;;;4977861;28;92444;-69
2022/07/12 01:50:50;;;;;;;2.60;2.38;;;17.70;99.90;;;;;;4977967;28;92440;-69
2022/07/12 01:53:17;;;;;;;2.90;2.70;;;17.70;99.90;;;;;;4991672;28;95504;-69
2022/07/12 01:55:44;;;;;;;2.50;2.30;;;17.60;99.90;;;;;;4977345;28;95424;-69
2022/07/12 01:58:12;;;;;;;3.97;3.67;;;17.60;99.90;;;;;;4977691;28;92439;-69
2022/07/12 02:00:40;;;;;;;2.65;2.45;;;17.50;99.90;;;;;;4977583;28;92619;-69
2022/07/12 02:03:07;;;;;;;2.20;2.00;;;17.50;99.90;;;;;;4975855;28;94561;-69
2022/07/12 02:05:35;;;;;;;3.83;3.63;;;17.50;99.90;;;;;;4959953;28;94235;-69
2022/07/12 02:08:01;;;;;;;3.20;2.90;;;17.40;99.90;;;;;;4977262;28;103527;-69
2022/07/12 02:10:28;;;;;;;2.90;2.70;;;17.40;99.90;;;;;;4978300;28;91817;-69
2022/07/12 02:12:55;;;;;;;3.63;3.42;;;17.30;99.90;;;;;;4992775;28;93495;-69
2022/07/12 02:15:22;;;;;;;2.72;2.53;;;17.30;99.90;;;;;;4992785;28;93139;-69
2022/07/12 02:17:49;;;;;;;2.78;2.58;;;17.20;99.90;;;;;;4976845;28;94777;-69
2022/07/12 02:20:16;;;;;;;2.67;1.90;;;17.20;99.90;;;;;;4977434;28;92354;-69
2022/07/12 02:22:43;;;;;;;3.75;3.55;;;17.20;99.90;;;;;;4992717;28;94155;-69
2022/07/12 02:25:10;;;;;;;3.80;3.50;;;17.10;99.90;;;;;;4992418;28;93334;-69
2022/07/12 02:27:40;;;;;;;3.33;3.08;;;17.00;99.90;;;;;;4977336;28;92356;-69
2022/07/12 02:30:09;;;;;;;2.83;2.63;;;17.00;99.90;;;;;;4977249;28;92440;-69
2022/07/12 02:32:37;;;;;;;2.10;2.00;;;16.90;99.90;;;;;;4977333;28;93328;-69
2022/07/12 02:35:07;;;;;;;4.13;3.83;;;16.90;99.90;;;;;;4977123;28;108669;-69
2022/07/12 02:37:34;;;;;;;2.88;2.65;;;16.90;99.90;;;;;;4977509;28;92437;-69
2022/07/12 02:42:48;;;;;;;3.10;2.80;;;16.80;99.90;;;;;;4974405;28;96801;-69
2022/07/12 02:45:15;;;;;;;3.78;3.47;;;16.70;99.90;;;;;;4976098;28;95304;-69
2022/07/12 02:47:42;;;;;;;3.08;2.88;;;16.60;99.90;;;;;;4975650;28;92623;-68
2022/07/12 02:50:09;;;;;;;2.90;2.63;;;16.60;99.90;;;;;;4975728;28;92473;-69
2022/07/12 02:52:36;;;;;;;2.03;1.92;;;16.60;99.90;;;;;;4975684;28;93249;-69
2022/07/12 02:55:03;;;;;;;3.58;3.38;;;16.60;99.90;;;;;;4975882;28;92916;-69
2022/07/12 02:57:30;;;;;;;3.50;3.20;;;16.50;99.90;;;;;;4976750;28;92473;-69
2022/07/12 02:59:57;;;;;;;2.85;2.65;;;16.50;99.90;;;;;;4975946;28;91669;-68
2022/07/12 03:02:24;;;;;;;2.58;2.40;;;16.40;99.90;;;;;;4976704;28;93271;-69
2022/07/12 03:04:51;;;;;;;3.30;2.80;;;16.40;99.90;;;;;;4975505;28;92924;-69
2022/07/12 03:07:18;;;;;;;3.13;2.92;;;16.30;99.90;;;;;;4974269;28;94891;-69
2022/07/12 03:09:45;;;;;;;3.97;3.22;;;16.30;99.90;;;;;;4975553;28;92450;-69
2022/07/12 03:12:12;;;;;;;3.53;2.63;;;16.30;99.90;;;;;;4976172;28;105275;-69
2022/07/12 03:14:39;;;;;;;4.82;4.43;;;16.20;99.90;;;;;;4975270;28;95677;-69
2022/07/12 03:17:06;;;;;;;2.42;2.10;;;16.20;99.90;;;;;;4975411;28;92496;-69
2022/07/12 03:19:33;;;;;;;3.00;2.80;;;16.20;99.90;;;;;;4976552;28;92434;-69
2022/07/12 03:22:00;;;;;;;2.92;2.72;;;16.20;99.90;;;;;;4975106;28;94436;-68
2022/07/12 03:24:27;;;;;;;4.20;4.00;;;16.20;99.90;;;;;;4976795;28;93035;-69
2022/07/12 03:26:54;;;;;;;2.90;2.70;;;16.10;99.90;;;;;;4991926;28;92525;-69
2022/07/12 03:29:21;;;;;;;3.17;2.97;;;16.10;99.90;;;;;;4975412;28;92433;-69
2022/07/12 03:31:48;;;;;;;3.10;2.90;;;16.10;99.90;;;;;;4973956;28;95670;-69
2022/07/12 03:34:15;;;;;;;4.28;3.75;;;16.00;99.90;;;;;;4974573;28;98091;-69
2022/07/12 03:36:42;;;;;;;4.05;3.65;;;16.00;99.90;;;;;;4991987;28;92558;-69
2022/07/12 03:39:09;;;;;;;3.55;3.25;;;16.00;99.90;;;;;;4975208;28;92536;-69
2022/07/12 03:41:36;;;;;;;3.67;2.65;;;16.00;99.90;;;;;;4976079;28;93168;-68
2022/07/12 03:44:03;;;;;;;4.00;3.70;;;16.00;99.90;;;;;;4974674;28;103250;-69
2022/07/12 03:46:32;;;;;;;3.67;3.38;;;16.00;99.90;;;;;;4974912;28;93349;-69
2022/07/12 03:48:59;;;;;;;3.15;2.95;;;16.00;99.90;;;;;;4975317;28;92313;-68
2022/07/12 03:51:26;;;;;;;3.28;3.08;;;16.00;99.90;;;;;;4975902;28;93040;-69
2022/07/12 03:53:53;;;;;;;2.88;2.60;;;16.00;99.90;;;;;;4976102;28;93123;-69
2022/07/12 03:59:06;;;;;;;3.45;2.60;;;16.00;99.90;;;;;;4989387;28;92381;-69
2022/07/12 04:01:33;;;;;;;2.53;2.33;;;16.10;99.90;;;;;;4974679;28;93166;-69
2022/07/12 04:04:01;;;;;;;4.18;3.78;;;16.50;99.90;;;;;;4975718;28;92761;-69
2022/07/12 04:06:28;;;;;;;2.60;2.40;;;17.20;99.90;;;;;;4976025;28;92623;-69
2022/07/12 04:08:55;;;;;;;3.40;3.20;;;18.00;99.00;;;;;;4976141;28;92909;-69
2022/07/12 04:11:22;;;;;;;2.92;2.83;;;18.70;97.90;;;;;;4975844;28;93121;-69
2022/07/12 04:13:49;;;;;;;3.35;3.10;;;19.50;96.80;;;;;;4974639;28;94237;-69
2022/07/12 04:16:16;;;;;;;2.70;2.50;;;20.10;95.70;;;;;;4974762;28;92433;-69
2022/07/12 04:18:43;;;;;;;2.38;2.17;;;20.60;94.70;;;;;;4975715;28;96327;-69
2022/07/12 04:21:10;;;;;;;3.80;3.60;;;20.70;94.20;;;;;;4973200;28;95736;-69
2022/07/12 04:23:37;;;;;;;4.32;4.03;;;20.50;94.10;;;;;;4974343;28;95294;-69
2022/07/12 04:26:04;;;;;;;4.82;4.43;;;20.30;94.30;;;;;;4990935;28;92506;-69
2022/07/12 04:28:31;;;;;;;4.72;4.32;;;20.00;94.70;;;;;;4975353;28;92447;-69
2022/07/12 04:30:58;;;;;;;7.68;7.05;;;19.80;95.10;;;;;;4975893;28;93287;-69
2022/07/12 04:33:25;;;;;;;8.70;6.90;;;19.50;95.60;;;;;;4990740;28;93021;-69
2022/07/12 04:35:52;;;;;;;7.18;6.57;;;19.20;96.20;;;;;;4974401;28;92923;-69
2022/07/12 04:38:19;;;;;;;7.03;6.43;;;19.00;96.60;;;;;;4974741;28;91787;-69
2022/07/12 04:40:46;;;;;;;7.97;7.32;;;18.80;97.10;;;;;;4957796;28;94351;-69
2022/07/12 04:43:13;;;;;;;7.15;6.55;;;18.70;97.30;;;;;;4974167;28;94051;-69
2022/07/12 04:45:43;;;;;;;9.63;8.40;;;18.60;97.50;;;;;;4974332;28;94771;-69
2022/07/12 04:48:13;;;;;;;8.70;7.82;;;18.50;98.00;;;;;;4990477;28;92585;-69
2022/07/12 04:50:40;;;;;;;10.32;9.30;;;18.40;98.30;;;;;;4975164;28;93141;-69
2022/07/12 04:53:07;;;;;;;9.55;8.65;;;18.30;98.60;;;;;;4975120;28;103719;-69
2022/07/12 04:55:34;;;;;;;9.30;8.27;;;18.30;98.80;;;;;;4957551;28;92548;-69
2022/07/12 04:58:01;;;;;;;9.68;8.68;;;18.30;99.00;;;;;;4974498;28;92465;-69
2022/07/12 05:00:28;;;;;;;10.45;9.52;;;18.30;99.20;;;;;;4975259;28;93262;-69
2022/07/12 05:02:55;;;;;;;10.18;8.85;;;18.20;99.30;;;;;;4990913;28;93075;-69
2022/07/12 05:05:23;;;;;;;9.88;8.13;;;18.30;99.40;;;;;;4975707;28;92564;-69
2022/07/12 05:07:49;;;;;;;10.80;9.80;;;18.30;99.40;;;;;;4977166;28;92485;-69
2022/07/12 05:10:16;;;;;;;9.57;8.27;;;18.30;99.40;;;;;;4992470;28;95753;-69
2022/07/12 05:12:43;;;;;;;11.68;10.48;;;18.30;99.30;;;;;;4993624;28;95247;-69
2022/07/12 05:15:10;;;;;;;10.65;9.55;;;18.40;99.30;;;;;;4960524;28;92395;-69
2022/07/12 05:17:37;;;;;;;13.32;11.98;;;18.50;99.30;;;;;;4994009;28;92433;-69
2022/07/12 05:20:05;;;;;;;11.73;10.63;;;18.60;99.20;;;;;;4977916;28;92440;-69
2022/07/12 05:22:32;;;;;;;11.10;10.00;;;18.80;99.10;;;;;;4976130;28;94082;-69
2022/07/12 05:24:59;;;;;;;11.55;10.65;;;18.90;99.00;;;;;;4960273;28;93046;-69
2022/07/12 05:27:26;;;;;;;11.63;10.50;;;19.00;98.80;;;;;;4976527;28;102334;-69
2022/07/12 05:29:53;;;;;;;10.75;9.75;;;19.10;98.90;;;;;;4977619;28;93336;-69
2022/07/12 05:32:20;;;;;;;8.98;8.18;;;19.30;98.40;;;;;;4978448;28;93052;-69
2022/07/12 05:34:47;;;;;;;9.75;8.85;;;19.40;98.10;;;;;;4977275;28;95329;-69
2022/07/12 05:37:14;;;;;;;11.52;10.52;;;19.50;98.00;;;;;;4978258;28;92428;-69
2022/07/12 05:39:41;;;;;;;11.32;10.23;;;19.50;98.00;;;;;;4976156;28;93180;-69
2022/07/12 05:42:11;;;;;;;11.20;10.23;;;19.40;98.00;;;;;;4977568;28;93098;-69
2022/07/12 05:44:38;;;;;;;9.48;8.57;;;19.40;98.00;;;;;;4977415;28;92454;-69
2022/07/12 05:47:05;;;;;;;8.40;7.50;;;19.40;98.00;;;;;;4993436;28;92446;-69
2022/07/12 05:49:32;;;;;;;7.93;7.13;;;19.40;97.90;;;;;;4977962;28;93255;-69
2022/07/12 05:54:44;;;;;;;9.50;8.70;;;19.40;98.00;;;;;;4978130;28;92446;-69
2022/07/12 05:57:11;;;;;;;8.35;7.65;;;19.40;98.00;;;;;;4976700;28;92504;-69
2022/07/12 05:59:38;;;;;;;7.70;7.10;;;19.50;97.80;;;;;;4976398;28;97834;-69
2022/07/12 06:02:05;;;;;;;8.02;7.28;;;19.60;97.70;;;;;;4992922;28;95383;-69
2022/07/12 06:04:32;;;;;;;9.30;8.50;;;19.80;97.50;;;;;;4977710;28;92376;-69
2022/07/12 06:06:59;;;;;;;9.75;8.38;;;19.90;97.40;;;;;;4976296;28;92469;-69
2022/07/12 06:09:26;;;;;;;8.30;7.55;;;20.20;97.10;;;;;;4960127;28;94382;-69
2022/07/12 06:11:53;;;;;;;9.48;8.57;;;20.40;96.80;;;;;;4976362;28;93047;-69
2022/07/12 06:14:20;;;;;;;10.05;9.20;;;20.60;96.50;;;;;;4976386;28;92473;-69
2022/07/12 06:16:47;;;;;;;9.15;8.35;;;20.80;96.30;;;;;;4976351;28;91695;-69
2022/07/12 06:19:14;;;;;;;9.80;8.80;;;20.90;96.00;;;;;;4976538;28;93023;-69
2022/07/12 06:21:41;;;;;;;9.68;8.57;;;21.10;95.80;;;;;;4976238;28;93053;-69
2022/07/12 06:24:08;;;;;;;10.80;9.82;;;21.30;95.60;;;;;;4975178;28;94942;-69
2022/07/12 06:26:35;;;;;;;9.25;8.45;;;21.40;95.30;;;;;;4977569;28;92371;-69
2022/07/12 06:29:02;;;;;;;8.93;7.97;;;21.40;95.00;;;;;;4977336;28;93438;-69
2022/07/12 06:31:29;;;;;;;8.50;7.63;;;21.60;95.10;;;;;;4976272;28;93075;-69
2022/07/12 06:34:01;;;;;;;9.50;8.60;;;21.70;94.90;;;;;;4977477;28;92384;-69
2022/07/12 06:36:28;;;;;;;8.50;7.43;;;21.90;94.60;;;;;;4976245;28;92454;-69
2022/07/12 06:38:55;;;;;;;9.52;8.73;;;22.00;94.30;;;;;;4976746;28;94147;-69
2022/07/12 06:41:22;;;;;;;8.85;6.78;;;22.10;94.10;;;;;;4977518;28;93568;-69
2022/07/12 06:43:49;;;;;;;8.93;8.27;;;22.30;94.00;;;;;;4992344;28;92462;-69
2022/07/12 06:46:16;;;;;;;7.78;7.07;;;22.40;93.90;;;;;;4959719;28;92512;-69
2022/07/12 06:48:43;;;;;;;7.60;7.00;;;22.50;93.60;;;;;;4974279;28;98418;-69
2022/07/12 06:51:10;;;;;;;6.72;6.13;;;22.60;93.40;;;;;;4976869;28;94742;-69
2022/07/12 06:53:37;;;;;;;8.98;8.15;;;22.70;93.40;;;;;;4976777;28;99615;-69
2022/07/12 06:56:04;;;;;;;7.38;6.80;;;22.80;93.10;;;;;;4975459;28;92501;-69
2022/07/12 06:58:31;;;;;;;6.40;5.88;;;23.00;93.10;;;;;;4976631;28;95342;-69
2022/07/12 07:00:58;;;;;;;6.07;5.47;;;23.10;92.80;;;;;;4975259;28;94067;-69
2022/07/12 07:03:25;;;;;;;7.47;6.75;;;23.10;92.40;;;;;;4977022;28;92548;-69
2022/07/12 07:05:52;;;;;;;6.80;6.30;;;23.10;92.50;;;;;;4975930;28;91745;-69
2022/07/12 07:08:19;;;;;;;6.53;5.95;;;23.20;92.50;;;;;;4976709;28;93228;-69
2022/07/12 07:10:46;;;;;;;6.10;5.65;;;23.30;92.30;;;;;;4976527;28;93081;-69
2022/07/12 07:13:13;;;;;;;8.30;7.70;;;23.40;92.10;;;;;;4958288;28;94935;-69
2022/07/12 07:15:40;;;;;;;7.47;6.93;;;23.60;92.00;;;;;;4976569;28;92408;-69
2022/07/12 07:18:07;;;;;;;6.80;6.30;;;23.50;92.00;;;;;;4976367;28;94408;-69
2022/07/12 07:20:34;;;;;;;6.65;5.57;;;23.60;92.10;;;;;;4991969;28;93122;-69
2022/07/12 07:23:01;;;;;;;6.55;6.00;;;23.70;91.90;;;;;;4976583;28;92481;-69
2022/07/12 07:25:28;;;;;;;7.72;7.03;;;23.70;91.80;;;;;;4976270;28;92475;-70
2022/07/12 07:27:55;;;;;;;6.78;6.22;;;23.80;91.70;;;;;;4958686;28;94116;-69
2022/07/12 07:33:07;;;;;;;7.00;6.25;;;23.90;91.50;;;;;;4975073;28;92543;-69
2022/07/12 07:35:34;;;;;;;8.07;7.53;;;24.00;91.60;;;;;;4976604;28;92846;-69
2022/07/12 07:38:01;;;;;;;6.78;6.07;;;24.10;91.50;;;;;;4990034;28;95559;-69
2022/07/12 07:40:28;;;;;;;7.72;7.03;;;24.10;91.40;;;;;;4991529;28;95081;-69
2022/07/12 07:42:55;;;;;;;7.85;7.15;;;24.20;91.40;;;;;;4991345;28;92535;-69
2022/07/12 07:45:22;;;;;;;8.25;7.57;;;24.30;91.40;;;;;;4974924;28;92481;-69
2022/07/12 07:47:50;;;;;;;7.95;7.45;;;24.10;91.20;;;;;;4975833;28;98476;-69
2022/07/12 07:50:38;;;;;;;7.80;7.20;;;24.10;91.60;;;;;;4988557;28;93008;-69
2022/07/12 07:53:05;;;;;;;8.30;7.55;;;24.10;91.60;;;;;;4991088;28;93318;-69
2022/07/12 07:55:32;;;;;;;8.43;7.82;;;24.10;91.60;;;;;;4976716;28;91719;-69
2022/07/12 07:58:00;;;;;;;8.13;7.53;;;24.00;91.80;;;;;;4958293;28;94217;-69
2022/07/12 08:00:28;;;;;;;6.95;6.35;;;24.00;91.90;;;;;;4974556;28;95539;-69
2022/07/12 08:02:56;;;;;;;6.88;6.38;;;24.00;91.90;;;;;;4974162;28;94832;-69
2022/07/12 08:05:23;;;;;;;6.75;6.15;;;24.00;92.00;;;;;;4975645;28;92461;-69
2022/07/12 08:07:54;;;;;;;6.07;5.60;;;24.00;92.30;;;;;;4976032;28;93316;-69
2022/07/12 08:10:22;;;;;;;6.63;6.20;;;24.30;92.50;;;;;;4973996;28;109536;-70
2022/07/12 08:12:49;;;;;;;7.32;6.72;;;25.00;92.00;;;;;;4976019;28;92418;-69
2022/07/12 08:15:16;;;;;;;6.78;6.18;;;26.00;90.90;;;;;;4975969;28;92446;-70
2022/07/12 08:17:42;;;;;;;6.20;5.80;;;27.10;89.10;;;;;;4975829;28;93321;-70
2022/07/12 08:20:16;;;;;;;6.53;6.03;;;28.30;86.40;;;;;;4974865;28;94728;-70
2022/07/12 08:23:03;;;;;;;5.78;5.30;;;29.60;83.10;;;;;;4974885;28;92510;-70
2022/07/12 08:25:30;;;;;;;6.90;6.50;;;30.80;78.70;;;;;;4975872;28;92517;-70
2022/07/12 08:28:00;;;;;;;6.38;5.88;;;31.80;74.70;;;;;;4972815;28;96703;-70
2022/07/12 08:30:30;;;;;;;5.93;5.53;;;32.60;71.30;;;;;;4974220;28;96881;-70
2022/07/12 08:32:57;;;;;;;7.47;7.00;;;33.20;69.80;;;;;;4975932;28;92664;-71
2022/07/12 08:35:24;;;;;;;6.28;5.95;;;33.90;67.80;;;;;;4974530;28;92535;-70
2022/07/12 08:37:56;;;;;;;6.70;6.30;;;34.70;66.00;;;;;;4974145;28;93210;-70
2022/07/12 08:40:29;;;;;;;5.45;5.15;;;35.40;63.20;;;;;;4974084;28;94146;-71
2022/07/12 08:43:17;;;;;;;4.70;4.40;;;36.00;61.30;;;;;;4978149;28;92441;-71
2022/07/12 08:45:44;;;;;;;4.70;4.50;;;36.50;59.50;;;;;;4977791;28;101531;-71
2022/07/12 08:48:11;;;;;;;5.50;5.10;;;36.90;57.40;;;;;;4978655;28;93134;-71
2022/07/12 08:50:38;;;;;;;6.20;5.90;;;37.30;56.40;;;;;;4977478;28;106030;-71
2022/07/12 08:53:12;;;;;;;6.22;5.72;;;37.50;55.10;;;;;;4977827;28;95877;-71
2022/07/12 08:55:39;;;;;;;5.10;4.80;;;37.20;54.50;;;;;;4979199;28;92972;-71
2022/07/12 08:58:15;;;;;;;7.18;6.68;;;37.10;55.40;;;;;;4978656;28;93106;-71
2022/07/12 09:00:42;;;;;;;5.90;5.50;;;37.60;53.50;;;;;;4978971;28;93013;-71
2022/07/12 09:03:14;;;;;;;4.85;4.47;;;37.50;53.70;;;;;;4978488;28;92589;-71
2022/07/12 09:06:10;;;;;;;4.68;4.25;;;37.30;52.80;;;;;;4978916;28;92561;-71
2022/07/12 09:08:39;;;;;;;4.55;4.25;;;37.50;52.40;;;;;;4978584;28;93333;-71
2022/07/12 09:11:06;;;;;;;5.00;4.70;;;37.00;53.40;;;;;;4978766;28;93104;-71
2022/07/12 09:13:46;;;;;;;4.68;4.38;;;36.90;53.20;;;;;;4977298;28;92431;-71
2022/07/12 09:16:22;;;;;;;4.55;4.25;;;37.10;53.10;;;;;;4977449;28;92510;-70
2022/07/12 09:18:50;;;;;;;4.50;4.20;;;36.60;53.40;;;;;;4992754;28;96068;-71
2022/07/12 09:21:23;;;;;;;4.40;4.10;;;35.90;53.80;;;;;;4978127;28;95190;-70
2022/07/12 09:23:58;;;;;;;5.20;4.80;;;35.50;55.10;;;;;;4977157;28;92844;-70
2022/07/12 09:26:32;;;;;;;4.38;4.07;;;34.90;55.80;;;;;;4977165;28;94284;-70
2022/07/12 09:29:12;;;;;;;2.20;2.10;;;34.10;57.60;;;;;;4978503;28;93288;-70
2022/07/12 09:37:23;;;;;;;3.17;2.60;;;33.20;59.70;;;;;;4978531;28;92149;-70
2022/07/12 09:39:53;;;;;;;2.50;2.40;;;32.90;60.20;;;;;;4977787;28;93211;-70
2022/07/12 09:42:21;;;;;;;3.80;3.50;;;32.80;60.90;;;;;;4977725;28;94023;-70
2022/07/12 09:44:56;;;;;;;3.72;3.50;;;32.50;61.10;;;;;;4977255;28;94769;-70
2022/07/12 09:47:25;;;;;;;3.08;2.88;;;32.30;61.80;;;;;;4977748;28;92516;-70
2022/07/12 09:49:52;;;;;;;3.35;3.17;;;32.20;62.40;;;;;;4977581;28;101106;-70
2022/07/12 09:52:22;;;;;;;3.90;3.65;;;32.10;62.20;;;;;;4978037;28;93032;-70
2022/07/12 09:54:53;;;;;;;3.10;2.90;;;32.00;62.60;;;;;;4978036;28;92468;-70
2022/07/12 09:57:31;;;;;;;2.38;2.28;;;31.90;63.00;;;;;;4977783;28;92439;-70
2022/07/12 10:00:00;;;;;;;2.45;2.35;;;31.90;63.40;;;;;;4976565;28;95769;-70
2022/07/12 10:02:37;;;;;;;2.88;2.63;;;31.80;64.20;;;;;;4975291;28;92499;-70
2022/07/12 10:05:06;;;;;;;2.60;2.50;;;31.60;64.20;;;;;;4960050;28;92459;-70
2022/07/12 10:07:35;;;;;;;3.15;2.95;;;31.60;64.20;;;;;;4976377;28;92658;-70
2022/07/12 10:10:03;;;;;;;3.83;3.63;;;31.60;64.40;;;;;;4976448;28;95631;-70
2022/07/12 10:12:30;;;;;;;2.67;2.58;;;31.50;64.80;;;;;;4977267;28;98065;-70
2022/07/12 10:15:03;;;;;;;2.55;2.35;;;31.50;64.50;;;;;;4977797;28;92569;-70
2022/07/12 10:17:33;;;;;;;3.38;3.10;;;31.40;64.10;;;;;;4978017;28;92525;-70
2022/07/12 10:20:14;;;;;;;4.05;3.85;;;31.40;64.20;;;;;;4977662;28;92534;-70
2022/07/12 10:22:41;;;;;;;3.70;3.45;;;31.40;64.50;;;;;;4977777;28;92939;-70
2022/07/12 10:25:31;;;;;;;3.03;2.88;;;31.20;64.80;;;;;;4992980;28;92552;-70
2022/07/12 10:27:59;;;;;;;2.88;2.67;;;31.10;64.40;;;;;;4978010;28;91657;-70
2022/07/12 10:30:26;;;;;;;3.90;2.70;;;30.60;65.80;;;;;;4959046;28;109106;-70
2022/07/12 10:32:59;;;;;;;2.20;2.00;;;30.40;66.50;;;;;;4977328;28;93804;-70
2022/07/12 10:35:30;;;;;;;2.22;2.10;;;30.30;67.10;;;;;;4976229;28;94807;-70
2022/07/12 10:38:48;;;;;;;2.92;2.83;;;30.40;67.20;;;;;;4977659;28;92385;-70
2022/07/12 10:41:23;;;;;;;3.20;3.10;;;30.60;67.00;;;;;;4959114;28;95231;-70
2022/07/12 10:44:05;;;;;;;2.78;2.67;;;30.40;66.80;;;;;;4976724;28;93044;-70
2022/07/12 10:46:36;;;;;;;2.93;2.77;;;30.60;66.50;;;;;;4975624;28;92417;-70
2022/07/12 10:49:23;;;;;;;2.63;1.92;;;30.60;66.10;;;;;;4977361;28;92402;-70
2022/07/12 10:52:09;;;;;;;1.73;1.65;;;30.80;65.70;;;;;;4975783;28;93313;-70
2022/07/12 10:54:50;;;;;;;2.80;2.70;;;30.80;65.70;;;;;;4977728;28;93049;-70
2022/07/12 10:57:38;;;;;;;1.30;1.02;;;30.90;64.40;;;;;;4992270;28;92568;-70
2022/07/12 11:00:06;;;;;;;1.85;1.75;;;31.00;63.50;;;;;;4977088;28;92348;-70
2022/07/12 11:02:33;;;;;;;3.30;1.92;;;31.10;63.40;;;;;;4990506;28;99651;-70
2022/07/12 11:05:00;;;;;;;2.10;2.00;;;31.10;62.50;;;;;;4975907;28;95433;-70
2022/07/12 11:07:28;;;;;;;1.10;1.00;;;31.30;62.60;;;;;;4975592;28;92506;-70
2022/07/12 11:09:55;;;;;;;1.17;1.10;;;31.30;62.50;;;;;;4975515;28;92550;-70
2022/07/12 11:12:29;;;;;;;1.95;1.77;;;31.40;63.30;;;;;;4976596;28;93140;-70
2022/07/12 11:14:59;;;;;;;1.88;1.77;;;31.60;63.20;;;;;;4976494;28;92444;-70
2022/07/12 11:17:27;;;;;;;2.22;2.13;;;31.60;64.00;;;;;;4976437;28;92509;-70
2022/07/12 11:20:06;;;;;;;2.42;2.28;;;31.70;63.80;;;;;;4975904;28;91713;-70
2022/07/12 11:22:33;;;;;;;1.58;1.48;;;31.90;63.10;;;;;;4976478;28;93261;-70
2022/07/12 11:25:01;;;;;;;1.92;1.83;;;31.90;62.70;;;;;;4976658;28;93044;-70
2022/07/12 11:27:30;;;;;;;1.50;1.33;;;32.00;62.80;;;;;;4973962;28;95006;-70
2022/07/12 11:29:58;;;;;;;2.85;2.65;;;32.00;62.90;;;;;;4975452;28;92806;-70
2022/07/12 11:32:39;;;;;;;2.33;2.20;;;32.00;62.60;;;;;;4976061;28;93256;-70
2022/07/12 11:35:23;;;;;;;2.25;1.35;;;32.20;62.80;;;;;;4975351;28;92909;-70
2022/07/12 11:37:55;;;;;;;2.10;2.00;;;32.20;61.60;;;;;;4976395;28;92362;-70
2022/07/12 11:40:28;;;;;;;1.33;1.23;;;32.20;61.70;;;;;;4974862;28;92525;-70
2022/07/12 11:42:59;;;;;;;;;;;32.20;61.20;;;;;;4976487;28;93207;-70
2022/07/12 11:45:28;;;;;;;1.23;1.10;;;32.00;61.70;;;;;;4977551;28;92649;-70
2022/07/12 11:47:57;;;;;;;1.67;1.55;;;32.00;61.40;;;;;;4976303;28;92468;-70
2022/07/12 11:50:24;;;;;;;1.73;1.10;;;32.10;61.50;;;;;;4991215;28;92542;-70
2022/07/12 11:52:55;;;;;;;1.15;1.15;;;32.20;61.50;;;;;;4973379;28;98735;-70
2022/07/12 11:55:23;;;;;;;2.70;1.55;;;32.30;61.00;;;;;;4975362;28;105705;-70
2022/07/12 11:57:50;;;;;;;1.00;0.80;;;32.50;60.90;;;;;;4984638;28;92592;-70
2022/07/12 12:00:23;;;;;;;1.13;1.13;;;32.60;60.60;;;;;;4956400;28;92606;-70
2022/07/12 12:02:53;;;;;;;1.67;1.58;;;32.60;60.50;;;;;;4956286;28;93490;-70
2022/07/12 12:05:21;;;;;;;1.55;1.55;;;32.60;60.60;;;;;;4956089;28;93142;-70
2022/07/12 12:07:48;;;;;;;0.70;0.70;;;32.70;60.60;;;;;;4954798;28;92441;-70
2022/07/12 12:10:20;;;;;;;1.52;1.17;;;32.80;60.30;;;;;;4955802;28;91751;-70
2022/07/12 12:12:51;;;;;;;1.67;1.63;;;32.90;60.70;;;;;;4971187;28;92523;-70
2022/07/12 12:15:21;;;;;;;2.50;1.45;;;33.00;60.30;;;;;;4956511;28;93166;-70
2022/07/12 12:17:54;;;;;;;2.42;1.77;;;33.20;59.60;;;;;;4952819;28;94994;-70
2022/07/12 12:20:28;;;;;;;1.45;0.90;;;33.30;59.10;;;;;;4956372;28;92462;-70
2022/07/12 12:22:57;;;;;;;1.85;1.85;;;33.40;58.30;;;;;;4956010;28;92579;-70
2022/07/12 12:25:26;;;;;;;1.13;1.00;;;33.50;59.30;;;;;;4955642;28;92647;-70
2022/07/12 12:28:01;;;;;;;1.42;1.10;;;33.60;58.70;;;;;;4955465;28;103378;-70
2022/07/12 12:30:56;;;;;;;1.40;1.08;;;33.60;57.50;;;;;;4939859;28;92958;-70
2022/07/12 12:33:40;;;;;;;1.38;1.38;;;33.60;57.20;;;;;;4954627;28;93142;-70
2022/07/12 12:36:21;;;;;;;1.77;1.67;;;33.60;58.20;;;;;;4955054;28;92923;-70
2022/07/12 12:38:53;;;;;;;1.33;1.23;;;33.50;57.90;;;;;;4955912;28;93307;-70
2022/07/12 12:41:24;;;;;;;1.25;1.20;;;33.40;57.60;;;;;;4954827;28;92510;-70
2022/07/12 12:44:03;;;;;;;1.95;1.80;;;33.20;57.40;;;;;;4954516;28;100000;-70
2022/07/12 12:46:55;;;;;;;1.02;0.90;;;33.10;56.90;;;;;;4954371;28;95621;-70
2022/07/12 12:49:49;;;;;;;1.70;1.65;;;33.00;57.80;;;;;;4938258;28;92474;-70
2022/07/12 12:52:22;;;;;;;1.40;0.80;;;32.90;58.10;;;;;;4956238;28;93013;-70
2022/07/12 12:54:49;;;;;;;0.77;0.70;;;32.70;58.10;;;;;;4953673;28;94306;-70
2022/07/12 12:57:16;;;;;;;1.17;1.17;;;32.70;57.90;;;;;;4954143;28;93902;-70
2022/07/12 12:59:43;;;;;;;1.10;1.08;;;32.70;57.90;;;;;;4970863;28;93273;-70
2022/07/12 13:02:11;;;;;;;1.65;0.85;;;32.70;57.50;;;;;;4956213;28;92137;-70
2022/07/12 13:04:39;;;;;;;2.13;1.10;;;32.70;57.40;;;;;;4953697;28;92533;-70
2022/07/12 13:07:06;;;;;;;1.05;1.05;;;32.70;57.50;;;;;;4955316;28;93764;-70
2022/07/12 13:09:38;;;;;;;2.08;1.42;;;32.70;57.70;;;;;;4968846;28;94862;-70
2022/07/12 13:12:05;;;;;;;1.15;1.15;;;32.60;58.20;;;;;;4954302;28;92457;-70